Terminal Aerodrome Forecast
Issued by NWS Sterling, VA

Home | Current Version | Previous Version | Text Only | Print | Product List | Glossary On
Versions: 1 2 3 4 5 6 7 8 9 10 11 12 13 14 15 16 17
000
FTUS41 KLWX 161700
TAFCHO
TAF
KCHO 161733Z 1618/1718 04008KT P6SM FEW250
     FM170100 07004KT P6SM FEW250
     FM170500 00000KT P6SM FEW250
     FM171300 07006KT P6SM FEW250=

USA.gov is the U.S. government's official web portal to all federal, state and local government web resources and services.